sensor_id;sensor_type;location;lat;lon;timestamp;pressure;altitude;pressure_sealevel;temperature;humidity
23363;BME280;11853;48.080;11.960;2022-12-17T00:01:51;94749.72;;;-0.25;100.00
23363;BME280;11853;48.080;11.960;2022-12-17T00:04:35;94758.03;;;-0.18;100.00
23363;BME280;11853;48.080;11.960;2022-12-17T00:07:19;94755.41;;;-0.18;100.00
23363;BME280;11853;48.080;11.960;2022-12-17T00:10:03;94756.25;;;-0.17;100.00
23363;BME280;11853;48.080;11.960;2022-12-17T00:12:48;94769.94;;;-0.28;100.00
23363;BME280;11853;48.080;11.960;2022-12-17T00:15:33;94774.13;;;-0.26;100.00
23363;BME280;11853;48.080;11.960;2022-12-17T00:18:18;94773.00;;;-0.21;100.00
23363;BME280;11853;48.080;11.960;2022-12-17T00:21:02;94770.22;;;-0.18;100.00
23363;BME280;11853;48.080;11.960;2022-12-17T00:23:46;94778.25;;;-0.07;100.00
23363;BME280;11853;48.080;11.960;2022-12-17T00:26:31;94779.81;;;-0.19;100.00
23363;BME280;11853;48.080;11.960;2022-12-17T00:29:15;94786.03;;;-0.21;100.00
23363;BME280;11853;48.080;11.960;2022-12-17T00:32:00;94782.84;;;-0.27;100.00
23363;BME280;11853;48.080;11.960;2022-12-17T00:34:45;94794.81;;;-0.22;100.00
23363;BME280;11853;48.080;11.960;2022-12-17T00:37:29;94792.28;;;-0.24;100.00
23363;BME280;11853;48.080;11.960;2022-12-17T00:40:13;94799.84;;;-0.19;100.00
23363;BME280;11853;48.080;11.960;2022-12-17T00:43:05;94799.06;;;-0.21;100.00
23363;BME280;11853;48.080;11.960;2022-12-17T00:45:49;94813.78;;;-0.20;100.00
23363;BME280;11853;48.080;11.960;2022-12-17T00:48:33;94816.56;;;-0.24;100.00
23363;BME280;11853;48.080;11.960;2022-12-17T00:51:18;94822.34;;;-0.18;100.00
23363;BME280;11853;48.080;11.960;2022-12-17T00:54:02;94817.78;;;-0.15;100.00
23363;BME280;11853;48.080;11.960;2022-12-17T00:56:46;94819.56;;;-0.15;100.00
23363;BME280;11853;48.080;11.960;2022-12-17T00:59:30;94831.59;;;-0.13;100.00
23363;BME280;11853;48.080;11.960;2022-12-17T01:02:14;94841.06;;;-0.12;100.00
23363;BME280;11853;48.080;11.960;2022-12-17T01:04:58;94829.59;;;-0.24;100.00
23363;BME280;11853;48.080;11.960;2022-12-17T01:07:42;94849.19;;;-0.32;100.00
23363;BME280;11853;48.080;11.960;2022-12-17T01:10:26;94847.09;;;-0.26;100.00
23363;BME280;11853;48.080;11.960;2022-12-17T01:13:14;94844.50;;;-0.26;100.00
23363;BME280;11853;48.080;11.960;2022-12-17T01:16:07;94846.94;;;-0.22;100.00
23363;BME280;11853;48.080;11.960;2022-12-17T01:18:52;94855.59;;;-0.38;100.00
23363;BME280;11853;48.080;11.960;2022-12-17T01:21:36;94857.63;;;-0.43;100.00
23363;BME280;11853;48.080;11.960;2022-12-17T01:24:21;94864.69;;;-0.45;100.00
23363;BME280;11853;48.080;11.960;2022-12-17T01:27:06;94861.91;;;-0.42;100.00
23363;BME280;11853;48.080;11.960;2022-12-17T01:29:50;94863.25;;;-0.35;100.00
23363;BME280;11853;48.080;11.960;2022-12-17T01:32:34;94868.72;;;-0.39;100.00
23363;BME280;11853;48.080;11.960;2022-12-17T01:35:19;94870.50;;;-0.40;100.00
23363;BME280;11853;48.080;11.960;2022-12-17T01:38:12;94870.81;;;-0.46;100.00
23363;BME280;11853;48.080;11.960;2022-12-17T01:40:56;94869.91;;;-0.45;100.00
23363;BME280;11853;48.080;11.960;2022-12-17T01:43:40;94879.75;;;-0.50;99.61
23363;BME280;11853;48.080;11.960;2022-12-17T01:46:28;94881.59;;;-0.52;99.24
23363;BME280;11853;48.080;11.960;2022-12-17T01:49:13;94890.16;;;-0.50;99.92
23363;BME280;11853;48.080;11.960;2022-12-17T01:51:58;94890.75;;;-0.45;99.48
23363;BME280;11853;48.080;11.960;2022-12-17T01:54:43;94892.44;;;-0.44;98.91
23363;BME280;11853;48.080;11.960;2022-12-17T01:57:28;94891.59;;;-0.44;98.77
23363;BME280;11853;48.080;11.960;2022-12-17T02:00:15;94898.75;;;-0.48;99.73
23363;BME280;11853;48.080;11.960;2022-12-17T02:02:59;94898.88;;;-0.35;98.95
23363;BME280;11853;48.080;11.960;2022-12-17T02:06:05;94905.03;;;-0.52;98.87
23363;BME280;11853;48.080;11.960;2022-12-17T02:12:10;94906.91;;;-0.54;100.00
23363;BME280;11853;48.080;11.960;2022-12-17T02:18:01;94917.06;;;-0.50;99.27
23363;BME280;11853;48.080;11.960;2022-12-17T02:21:01;94909.56;;;-0.56;100.00
23363;BME280;11853;48.080;11.960;2022-12-17T02:27:00;94916.38;;;-0.53;100.00
23363;BME280;11853;48.080;11.960;2022-12-17T02:29:51;94908.09;;;-0.60;100.00
23363;BME280;11853;48.080;11.960;2022-12-17T02:32:39;94921.78;;;-0.56;100.00
23363;BME280;11853;48.080;11.960;2022-12-17T02:35:30;94918.56;;;-0.61;100.00
23363;BME280;11853;48.080;11.960;2022-12-17T02:38:35;94924.72;;;-0.62;100.00
23363;BME280;11853;48.080;11.960;2022-12-17T02:41:31;94921.41;;;-0.66;100.00
23363;BME280;11853;48.080;11.960;2022-12-17T02:44:18;94924.88;;;-0.65;100.00
23363;BME280;11853;48.080;11.960;2022-12-17T02:47:07;94923.88;;;-0.63;100.00
23363;BME280;11853;48.080;11.960;2022-12-17T02:49:52;94923.28;;;-0.52;100.00
23363;BME280;11853;48.080;11.960;2022-12-17T02:52:39;94922.25;;;-0.50;100.00
23363;BME280;11853;48.080;11.960;2022-12-17T02:55:24;94939.06;;;-0.55;100.00
23363;BME280;11853;48.080;11.960;2022-12-17T02:58:08;94934.97;;;-0.59;99.71
23363;BME280;11853;48.080;11.960;2022-12-17T03:00:52;94936.03;;;-0.63;100.00
23363;BME280;11853;48.080;11.960;2022-12-17T03:03:36;94950.31;;;-0.71;100.00
23363;BME280;11853;48.080;11.960;2022-12-17T03:06:20;94954.09;;;-0.60;100.00
23363;BME280;11853;48.080;11.960;2022-12-17T03:09:04;94960.19;;;-0.60;100.00
23363;BME280;11853;48.080;11.960;2022-12-17T03:11:49;94958.41;;;-0.59;100.00
23363;BME280;11853;48.080;11.960;2022-12-17T03:14:34;94972.50;;;-0.63;100.00
23363;BME280;11853;48.080;11.960;2022-12-17T03:17:18;94969.00;;;-0.62;100.00
23363;BME280;11853;48.080;11.960;2022-12-17T03:20:02;94976.88;;;-0.64;100.00
23363;BME280;11853;48.080;11.960;2022-12-17T03:23:04;94972.66;;;-0.66;100.00
23363;BME280;11853;48.080;11.960;2022-12-17T03:25:49;94974.53;;;-0.69;100.00
23363;BME280;11853;48.080;11.960;2022-12-17T03:28:33;94975.28;;;-0.66;100.00
23363;BME280;11853;48.080;11.960;2022-12-17T03:31:17;94970.50;;;-0.58;100.00
23363;BME280;11853;48.080;11.960;2022-12-17T03:34:01;94972.16;;;-0.57;100.00
23363;BME280;11853;48.080;11.960;2022-12-17T03:36:45;94978.03;;;-0.70;100.00
23363;BME280;11853;48.080;11.960;2022-12-17T03:39:29;94979.13;;;-0.74;100.00
23363;BME280;11853;48.080;11.960;2022-12-17T03:42:13;94977.53;;;-0.76;99.91
23363;BME280;11853;48.080;11.960;2022-12-17T03:44:57;94976.09;;;-0.82;99.79
23363;BME280;11853;48.080;11.960;2022-12-17T03:47:41;94983.91;;;-0.82;98.83
23363;BME280;11853;48.080;11.960;2022-12-17T03:50:25;94976.34;;;-0.86;98.67
23363;BME280;11853;48.080;11.960;2022-12-17T03:53:09;94986.41;;;-0.80;98.16
23363;BME280;11853;48.080;11.960;2022-12-17T03:55:52;94990.28;;;-0.87;98.65
23363;BME280;11853;48.080;11.960;2022-12-17T03:58:36;94988.06;;;-0.95;98.35
23363;BME280;11853;48.080;11.960;2022-12-17T04:01:20;94993.38;;;-0.97;98.65
23363;BME280;11853;48.080;11.960;2022-12-17T04:04:04;95000.63;;;-1.03;99.00
23363;BME280;11853;48.080;11.960;2022-12-17T04:06:48;94999.47;;;-0.98;97.91
23363;BME280;11853;48.080;11.960;2022-12-17T04:09:32;95011.38;;;-1.09;98.36
23363;BME280;11853;48.080;11.960;2022-12-17T04:12:16;95015.97;;;-1.15;98.41
23363;BME280;11853;48.080;11.960;2022-12-17T04:15:00;95006.63;;;-1.19;98.18
23363;BME280;11853;48.080;11.960;2022-12-17T04:17:44;95021.16;;;-1.15;97.86
23363;BME280;11853;48.080;11.960;2022-12-17T04:20:28;95023.50;;;-1.26;98.25
23363;BME280;11853;48.080;11.960;2022-12-17T04:23:26;95031.31;;;-1.26;97.38
23363;BME280;11853;48.080;11.960;2022-12-17T04:26:10;95021.19;;;-1.32;97.60
23363;BME280;11853;48.080;11.960;2022-12-17T04:28:54;95032.66;;;-1.36;98.01
23363;BME280;11853;48.080;11.960;2022-12-17T04:32:02;95038.09;;;-1.41;97.15
23363;BME280;11853;48.080;11.960;2022-12-17T04:34:47;95042.47;;;-1.41;97.48
23363;BME280;11853;48.080;11.960;2022-12-17T04:37:31;95042.75;;;-1.47;97.37
23363;BME280;11853;48.080;11.960;2022-12-17T04:40:14;95046.44;;;-1.34;96.19
23363;BME280;11853;48.080;11.960;2022-12-17T04:43:10;95051.25;;;-1.44;96.14
23363;BME280;11853;48.080;11.960;2022-12-17T04:45:55;95057.44;;;-1.46;96.96
23363;BME280;11853;48.080;11.960;2022-12-17T04:48:39;95049.94;;;-1.35;95.87
23363;BME280;11853;48.080;11.960;2022-12-17T04:51:23;95056.59;;;-1.47;96.37
23363;BME280;11853;48.080;11.960;2022-12-17T04:54:07;95060.19;;;-1.49;95.51
23363;BME280;11853;48.080;11.960;2022-12-17T04:56:51;95062.94;;;-1.52;95.96
23363;BME280;11853;48.080;11.960;2022-12-17T04:59:36;95057.84;;;-1.54;95.88
23363;BME280;11853;48.080;11.960;2022-12-17T05:02:20;95070.00;;;-1.54;96.45
23363;BME280;11853;48.080;11.960;2022-12-17T05:05:04;95064.88;;;-1.56;95.78
23363;BME280;11853;48.080;11.960;2022-12-17T05:07:52;95084.16;;;-1.60;95.65
23363;BME280;11853;48.080;11.960;2022-12-17T05:10:36;95073.59;;;-1.57;96.11
23363;BME280;11853;48.080;11.960;2022-12-17T05:13:21;95084.50;;;-1.68;96.70
23363;BME280;11853;48.080;11.960;2022-12-17T05:16:05;95084.50;;;-1.68;96.65
23363;BME280;11853;48.080;11.960;2022-12-17T05:18:49;95084.56;;;-1.69;96.72
23363;BME280;11853;48.080;11.960;2022-12-17T05:21:34;95094.66;;;-1.63;96.48
23363;BME280;11853;48.080;11.960;2022-12-17T05:24:18;95094.13;;;-1.70;97.59
23363;BME280;11853;48.080;11.960;2022-12-17T05:27:02;95100.03;;;-1.66;97.12
23363;BME280;11853;48.080;11.960;2022-12-17T05:29:46;95112.88;;;-1.63;97.26
23363;BME280;11853;48.080;11.960;2022-12-17T05:32:30;95110.34;;;-1.65;97.88
23363;BME280;11853;48.080;11.960;2022-12-17T05:35:14;95119.50;;;-1.75;98.38
23363;BME280;11853;48.080;11.960;2022-12-17T05:38:07;95121.75;;;-1.67;98.82
23363;BME280;11853;48.080;11.960;2022-12-17T05:40:51;95132.53;;;-1.58;98.40
23363;BME280;11853;48.080;11.960;2022-12-17T05:43:38;95143.44;;;-1.49;98.27
23363;BME280;11853;48.080;11.960;2022-12-17T05:46:22;95124.75;;;-1.58;98.67
23363;BME280;11853;48.080;11.960;2022-12-17T05:49:05;95130.72;;;-1.55;98.44
23363;BME280;11853;48.080;11.960;2022-12-17T05:51:50;95130.44;;;-1.49;97.71
23363;BME280;11853;48.080;11.960;2022-12-17T05:54:33;95135.03;;;-1.54;97.93
23363;BME280;11853;48.080;11.960;2022-12-17T05:57:17;95145.81;;;-1.45;98.14
23363;BME280;11853;48.080;11.960;2022-12-17T06:00:01;95148.56;;;-1.48;98.06
23363;BME280;11853;48.080;11.960;2022-12-17T06:02:46;95155.94;;;-1.58;97.98
23363;BME280;11853;48.080;11.960;2022-12-17T06:05:30;95154.28;;;-1.59;97.83
23363;BME280;11853;48.080;11.960;2022-12-17T06:08:14;95150.22;;;-1.64;97.83
23363;BME280;11853;48.080;11.960;2022-12-17T06:10:58;95162.03;;;-1.57;98.06
23363;BME280;11853;48.080;11.960;2022-12-17T06:13:43;95151.13;;;-1.65;97.62
23363;BME280;11853;48.080;11.960;2022-12-17T06:16:28;95149.81;;;-1.74;97.85
23363;BME280;11853;48.080;11.960;2022-12-17T06:19:12;95160.06;;;-1.71;98.32
23363;BME280;11853;48.080;11.960;2022-12-17T06:21:56;95169.53;;;-1.70;97.66
23363;BME280;11853;48.080;11.960;2022-12-17T06:24:40;95169.25;;;-1.64;97.20
23363;BME280;11853;48.080;11.960;2022-12-17T06:27:24;95164.44;;;-1.71;97.98
23363;BME280;11853;48.080;11.960;2022-12-17T06:30:08;95168.19;;;-1.78;97.61
23363;BME280;11853;48.080;11.960;2022-12-17T06:33:02;95172.72;;;-1.82;98.18
23363;BME280;11853;48.080;11.960;2022-12-17T06:35:46;95171.09;;;-1.85;98.29
23363;BME280;11853;48.080;11.960;2022-12-17T06:38:30;95181.28;;;-1.80;98.25
23363;BME280;11853;48.080;11.960;2022-12-17T06:41:14;95187.47;;;-1.83;98.70
23363;BME280;11853;48.080;11.960;2022-12-17T06:43:58;95190.13;;;-1.84;99.54
23363;BME280;11853;48.080;11.960;2022-12-17T06:46:42;95191.53;;;-1.77;97.86
23363;BME280;11853;48.080;11.960;2022-12-17T06:49:26;95198.56;;;-1.79;98.45
23363;BME280;11853;48.080;11.960;2022-12-17T06:52:10;95206.38;;;-1.79;97.90
23363;BME280;11853;48.080;11.960;2022-12-17T06:54:54;95202.44;;;-1.88;98.39
23363;BME280;11853;48.080;11.960;2022-12-17T06:57:38;95207.44;;;-1.83;98.61
23363;BME280;11853;48.080;11.960;2022-12-17T07:00:34;95213.19;;;-1.76;98.46
23363;BME280;11853;48.080;11.960;2022-12-17T07:03:18;95218.03;;;-1.69;97.12
23363;BME280;11853;48.080;11.960;2022-12-17T07:06:02;95220.91;;;-1.75;98.22
23363;BME280;11853;48.080;11.960;2022-12-17T07:08:46;95229.47;;;-1.73;97.98
23363;BME280;11853;48.080;11.960;2022-12-17T07:11:31;95236.25;;;-1.69;97.85
23363;BME280;11853;48.080;11.960;2022-12-17T07:14:15;95234.25;;;-1.64;98.55
23363;BME280;11853;48.080;11.960;2022-12-17T07:16:59;95237.00;;;-1.67;98.37
23363;BME280;11853;48.080;11.960;2022-12-17T07:19:43;95230.75;;;-1.63;98.02
23363;BME280;11853;48.080;11.960;2022-12-17T07:22:29;95235.81;;;-1.60;97.94
23363;BME280;11853;48.080;11.960;2022-12-17T07:25:13;95237.34;;;-1.55;97.76
23363;BME280;11853;48.080;11.960;2022-12-17T07:27:57;95245.47;;;-1.43;97.47
23363;BME280;11853;48.080;11.960;2022-12-17T07:30:41;95250.56;;;-1.41;97.46
23363;BME280;11853;48.080;11.960;2022-12-17T07:33:25;95243.56;;;-1.39;98.05
23363;BME280;11853;48.080;11.960;2022-12-17T07:36:09;95255.88;;;-1.06;96.24
23363;BME280;11853;48.080;11.960;2022-12-17T07:38:53;95262.22;;;-0.76;95.25
23363;BME280;11853;48.080;11.960;2022-12-17T07:41:37;95269.91;;;-0.55;94.20
23363;BME280;11853;48.080;11.960;2022-12-17T07:44:26;95271.94;;;-0.26;93.55
23363;BME280;11853;48.080;11.960;2022-12-17T07:47:10;95265.44;;;0.16;90.87
23363;BME280;11853;48.080;11.960;2022-12-17T07:49:54;95269.31;;;0.74;88.63
23363;BME280;11853;48.080;11.960;2022-12-17T07:52:38;95274.31;;;1.10;87.39
23363;BME280;11853;48.080;11.960;2022-12-17T07:55:22;95280.88;;;1.33;86.22
23363;BME280;11853;48.080;11.960;2022-12-17T07:58:09;95279.47;;;1.58;84.10
23363;BME280;11853;48.080;11.960;2022-12-17T08:00:53;95281.44;;;1.85;83.67
23363;BME280;11853;48.080;11.960;2022-12-17T08:03:38;95282.31;;;1.69;82.53
23363;BME280;11853;48.080;11.960;2022-12-17T08:06:21;95272.06;;;1.50;83.23
23363;BME280;11853;48.080;11.960;2022-12-17T08:09:06;95282.69;;;1.47;83.55
23363;BME280;11853;48.080;11.960;2022-12-17T08:11:50;95293.16;;;1.47;83.73
23363;BME280;11853;48.080;11.960;2022-12-17T08:14:34;95291.31;;;1.33;83.35
23363;BME280;11853;48.080;11.960;2022-12-17T08:17:18;95291.75;;;1.10;83.91
23363;BME280;11853;48.080;11.960;2022-12-17T08:20:03;95294.13;;;1.15;84.70
23363;BME280;11853;48.080;11.960;2022-12-17T08:22:46;95311.03;;;0.76;86.65
23363;BME280;11853;48.080;11.960;2022-12-17T08:25:30;95307.53;;;0.59;87.67
23363;BME280;11853;48.080;11.960;2022-12-17T08:28:14;95311.78;;;0.78;86.94
23363;BME280;11853;48.080;11.960;2022-12-17T08:30:59;95322.47;;;0.57;87.19
23363;BME280;11853;48.080;11.960;2022-12-17T08:33:43;95314.13;;;0.33;88.65
23363;BME280;11853;48.080;11.960;2022-12-17T08:36:27;95319.81;;;0.24;89.02
23363;BME280;11853;48.080;11.960;2022-12-17T08:39:11;95330.47;;;0.19;89.93
23363;BME280;11853;48.080;11.960;2022-12-17T08:41:55;95335.13;;;0.14;90.68
23363;BME280;11853;48.080;11.960;2022-12-17T08:44:39;95334.34;;;0.12;89.92
23363;BME280;11853;48.080;11.960;2022-12-17T08:47:23;95330.47;;;0.19;90.11
23363;BME280;11853;48.080;11.960;2022-12-17T08:50:08;95331.03;;;0.26;89.84
23363;BME280;11853;48.080;11.960;2022-12-17T08:52:59;95338.41;;;0.18;90.20
23363;BME280;11853;48.080;11.960;2022-12-17T08:55:44;95341.53;;;-0.10;94.12
23363;BME280;11853;48.080;11.960;2022-12-17T08:58:28;95343.22;;;-0.09;93.45
23363;BME280;11853;48.080;11.960;2022-12-17T09:01:12;95344.00;;;0.10;94.34
23363;BME280;11853;48.080;11.960;2022-12-17T09:03:56;95346.75;;;0.25;94.14
23363;BME280;11853;48.080;11.960;2022-12-17T09:06:40;95349.28;;;0.26;94.87
23363;BME280;11853;48.080;11.960;2022-12-17T09:09:24;95353.88;;;0.38;93.76
23363;BME280;11853;48.080;11.960;2022-12-17T09:12:09;95356.72;;;0.34;92.77
23363;BME280;11853;48.080;11.960;2022-12-17T09:14:52;95351.03;;;0.43;92.91
23363;BME280;11853;48.080;11.960;2022-12-17T09:17:36;95356.97;;;0.62;91.96
23363;BME280;11853;48.080;11.960;2022-12-17T09:20:20;95356.91;;;0.64;91.35
23363;BME280;11853;48.080;11.960;2022-12-17T09:23:04;95362.59;;;0.55;91.14
23363;BME280;11853;48.080;11.960;2022-12-17T09:25:52;95370.34;;;0.56;90.58
23363;BME280;11853;48.080;11.960;2022-12-17T09:28:37;95381.03;;;0.85;90.36
23363;BME280;11853;48.080;11.960;2022-12-17T09:31:21;95381.25;;;1.13;90.98
23363;BME280;11853;48.080;11.960;2022-12-17T09:34:06;95379.91;;;1.70;91.15
23363;BME280;11853;48.080;11.960;2022-12-17T09:36:50;95381.59;;;2.17;89.74
23363;BME280;11853;48.080;11.960;2022-12-17T09:39:34;95381.09;;;2.55;87.33
23363;BME280;11853;48.080;11.960;2022-12-17T09:42:25;95381.72;;;3.03;85.47
23363;BME280;11853;48.080;11.960;2022-12-17T09:51:04;95376.22;;;4.83;79.11
23363;BME280;11853;48.080;11.960;2022-12-17T09:53:49;95388.91;;;5.77;74.30
23363;BME280;11853;48.080;11.960;2022-12-17T09:56:34;95380.16;;;6.37;70.80
23363;BME280;11853;48.080;11.960;2022-12-17T09:59:23;95387.88;;;7.09;66.43
23363;BME280;11853;48.080;11.960;2022-12-17T10:02:19;95380.56;;;7.69;64.58
23363;BME280;11853;48.080;11.960;2022-12-17T10:05:20;95386.31;;;7.85;60.66
23363;BME280;11853;48.080;11.960;2022-12-17T10:08:05;95380.75;;;8.11;60.65
23363;BME280;11853;48.080;11.960;2022-12-17T10:10:51;95387.75;;;8.44;57.47
23363;BME280;11853;48.080;11.960;2022-12-17T10:13:36;95389.31;;;9.10;56.07
23363;BME280;11853;48.080;11.960;2022-12-17T10:16:33;95404.50;;;8.87;54.93
23363;BME280;11853;48.080;11.960;2022-12-17T10:19:28;95393.50;;;9.12;53.37
23363;BME280;11853;48.080;11.960;2022-12-17T10:22:15;95390.91;;;9.43;54.21
23363;BME280;11853;48.080;11.960;2022-12-17T10:27:50;95383.69;;;9.55;52.16
23363;BME280;11853;48.080;11.960;2022-12-17T10:30:35;95397.66;;;10.07;51.36
23363;BME280;11853;48.080;11.960;2022-12-17T10:33:20;95387.56;;;10.31;51.22
23363;BME280;11853;48.080;11.960;2022-12-17T10:36:18;95400.72;;;10.52;50.39
23363;BME280;11853;48.080;11.960;2022-12-17T10:39:04;95404.03;;;10.35;49.58
23363;BME280;11853;48.080;11.960;2022-12-17T10:41:50;95388.84;;;10.66;50.38
23363;BME280;11853;48.080;11.960;2022-12-17T10:44:36;95395.16;;;10.85;47.97
23363;BME280;11853;48.080;11.960;2022-12-17T10:47:26;95394.50;;;10.13;49.82
23363;BME280;11853;48.080;11.960;2022-12-17T10:50:19;95402.28;;;10.05;50.62
23363;BME280;11853;48.080;11.960;2022-12-17T10:53:16;95404.84;;;10.26;50.44
23363;BME280;11853;48.080;11.960;2022-12-17T10:56:02;95402.31;;;10.14;49.12
23363;BME280;11853;48.080;11.960;2022-12-17T10:58:49;95405.78;;;10.15;48.82
23363;BME280;11853;48.080;11.960;2022-12-17T11:01:35;95411.19;;;9.94;50.06
23363;BME280;11853;48.080;11.960;2022-12-17T11:04:28;95420.59;;;9.77;49.68
23363;BME280;11853;48.080;11.960;2022-12-17T11:07:19;95423.19;;;9.98;51.38
23363;BME280;11853;48.080;11.960;2022-12-17T11:10:06;95422.41;;;10.07;50.48
23363;BME280;11853;48.080;11.960;2022-12-17T11:13:01;95426.81;;;9.97;51.45
23363;BME280;11853;48.080;11.960;2022-12-17T11:15:51;95422.06;;;9.91;51.01
23363;BME280;11853;48.080;11.960;2022-12-17T11:18:48;95431.75;;;9.71;51.59
23363;BME280;11853;48.080;11.960;2022-12-17T11:21:39;95439.63;;;9.31;53.29
23363;BME280;11853;48.080;11.960;2022-12-17T11:24:34;95438.97;;;8.96;52.17
23363;BME280;11853;48.080;11.960;2022-12-17T11:27:26;95439.81;;;8.97;53.82
23363;BME280;11853;48.080;11.960;2022-12-17T11:30:13;95433.53;;;8.98;54.01
23363;BME280;11853;48.080;11.960;2022-12-17T11:33:16;95432.91;;;8.85;54.72
23363;BME280;11853;48.080;11.960;2022-12-17T11:36:27;95426.13;;;8.39;55.41
23363;BME280;11853;48.080;11.960;2022-12-17T11:42:29;95421.25;;;8.32;56.37
23363;BME280;11853;48.080;11.960;2022-12-17T11:48:25;95416.19;;;7.97;56.06
23363;BME280;11853;48.080;11.960;2022-12-17T11:54:06;95429.28;;;7.31;58.51
23363;BME280;11853;48.080;11.960;2022-12-17T11:57:23;95431.31;;;7.16;59.48
23363;BME280;11853;48.080;11.960;2022-12-17T12:00:18;95435.75;;;7.05;60.18
23363;BME280;11853;48.080;11.960;2022-12-17T12:03:36;95427.66;;;6.95;59.75
23363;BME280;11853;48.080;11.960;2022-12-17T12:06:48;95425.09;;;6.71;61.39
23363;BME280;11853;48.080;11.960;2022-12-17T12:09:56;95426.09;;;6.92;60.33
23363;BME280;11853;48.080;11.960;2022-12-17T12:16:10;95418.09;;;6.94;61.24
23363;BME280;11853;48.080;11.960;2022-12-17T12:19:10;95425.81;;;6.73;61.67
23363;BME280;11853;48.080;11.960;2022-12-17T12:25:08;95425.34;;;6.20;61.58
23363;BME280;11853;48.080;11.960;2022-12-17T12:31:12;95430.13;;;5.65;63.75
23363;BME280;11853;48.080;11.960;2022-12-17T12:34:13;95431.38;;;5.59;64.60
23363;BME280;11853;48.080;11.960;2022-12-17T12:37:01;95439.41;;;5.45;64.03
23363;BME280;11853;48.080;11.960;2022-12-17T12:39:53;95440.69;;;5.39;66.45
23363;BME280;11853;48.080;11.960;2022-12-17T12:42:58;95443.72;;;5.46;66.48
23363;BME280;11853;48.080;11.960;2022-12-17T12:45:57;95442.44;;;5.52;65.47
23363;BME280;11853;48.080;11.960;2022-12-17T12:49:04;95435.59;;;5.49;65.24
23363;BME280;11853;48.080;11.960;2022-12-17T12:51:53;95441.84;;;5.35;64.57
23363;BME280;11853;48.080;11.960;2022-12-17T12:57:33;95446.03;;;5.25;67.03
23363;BME280;11853;48.080;11.960;2022-12-17T13:03:32;95442.44;;;5.01;64.94
23363;BME280;11853;48.080;11.960;2022-12-17T13:06:37;95441.16;;;4.68;66.18
23363;BME280;11853;48.080;11.960;2022-12-17T13:09:15;95440.56;;;4.37;67.73
23363;BME280;11853;48.080;11.960;2022-12-17T13:14:50;95444.41;;;4.32;69.88
23363;BME280;11853;48.080;11.960;2022-12-17T13:17:26;95453.28;;;4.16;69.55
23363;BME280;11853;48.080;11.960;2022-12-17T13:24:49;95456.16;;;3.99;69.35
23363;BME280;11853;48.080;11.960;2022-12-17T13:38:24;95462.25;;;3.58;71.93
23363;BME280;11853;48.080;11.960;2022-12-17T13:43:28;95484.25;;;3.41;72.76
23363;BME280;11853;48.080;11.960;2022-12-17T13:45:55;95485.34;;;3.37;73.46
23363;BME280;11853;48.080;11.960;2022-12-17T13:48:24;95489.38;;;3.28;74.43
23363;BME280;11853;48.080;11.960;2022-12-17T13:51:00;95489.75;;;3.22;74.94
23363;BME280;11853;48.080;11.960;2022-12-17T13:53:27;95491.34;;;3.10;74.86
23363;BME280;11853;48.080;11.960;2022-12-17T13:55:55;95499.00;;;3.13;75.42
23363;BME280;11853;48.080;11.960;2022-12-17T13:58:27;95492.28;;;3.09;75.77
23363;BME280;11853;48.080;11.960;2022-12-17T14:01:04;95502.25;;;3.03;76.67
23363;BME280;11853;48.080;11.960;2022-12-17T14:03:30;95495.59;;;2.97;76.65
23363;BME280;11853;48.080;11.960;2022-12-17T14:05:57;95503.56;;;2.96;76.10
23363;BME280;11853;48.080;11.960;2022-12-17T14:08:27;95505.06;;;3.00;75.92
23363;BME280;11853;48.080;11.960;2022-12-17T14:10:55;95509.00;;;2.92;75.37
23363;BME280;11853;48.080;11.960;2022-12-17T14:13:51;95503.53;;;2.81;75.57
23363;BME280;11853;48.080;11.960;2022-12-17T14:16:20;95508.19;;;2.76;74.98
23363;BME280;11853;48.080;11.960;2022-12-17T14:18:51;95510.00;;;2.60;76.30
23363;BME280;11853;48.080;11.960;2022-12-17T14:21:18;95505.31;;;2.51;76.03
23363;BME280;11853;48.080;11.960;2022-12-17T14:23:46;95525.59;;;2.31;77.98
23363;BME280;11853;48.080;11.960;2022-12-17T14:26:13;95527.97;;;2.20;79.60
23363;BME280;11853;48.080;11.960;2022-12-17T14:28:50;95540.47;;;2.15;79.28
23363;BME280;11853;48.080;11.960;2022-12-17T14:31:22;95543.50;;;2.07;80.29
23363;BME280;11853;48.080;11.960;2022-12-17T14:34:09;95546.09;;;2.23;80.24
23363;BME280;11853;48.080;11.960;2022-12-17T14:36:40;95544.94;;;1.97;80.12
23363;BME280;11853;48.080;11.960;2022-12-17T14:39:28;95543.81;;;1.69;81.57
23363;BME280;11853;48.080;11.960;2022-12-17T14:41:56;95539.94;;;1.76;83.10
23363;BME280;11853;48.080;11.960;2022-12-17T14:44:52;95546.78;;;1.79;81.99
23363;BME280;11853;48.080;11.960;2022-12-17T14:47:30;95546.81;;;1.62;83.40
23363;BME280;11853;48.080;11.960;2022-12-17T14:55:26;95555.81;;;1.23;83.44
23363;BME280;11853;48.080;11.960;2022-12-17T14:58:05;95562.13;;;1.19;83.72
23363;BME280;11853;48.080;11.960;2022-12-17T15:00:33;95558.91;;;1.13;83.70
23363;BME280;11853;48.080;11.960;2022-12-17T15:02:59;95567.81;;;1.09;83.71
23363;BME280;11853;48.080;11.960;2022-12-17T15:05:25;95566.69;;;0.98;84.04
23363;BME280;11853;48.080;11.960;2022-12-17T15:07:50;95569.66;;;0.90;84.34
23363;BME280;11853;48.080;11.960;2022-12-17T15:10:19;95567.88;;;1.08;83.72
23363;BME280;11853;48.080;11.960;2022-12-17T15:12:45;95586.34;;;1.05;83.47
23363;BME280;11853;48.080;11.960;2022-12-17T15:15:16;95578.88;;;0.97;84.15
23363;BME280;11853;48.080;11.960;2022-12-17T15:17:42;95578.59;;;1.03;84.18
23363;BME280;11853;48.080;11.960;2022-12-17T15:20:16;95585.56;;;0.85;84.76
23363;BME280;11853;48.080;11.960;2022-12-17T15:22:42;95585.88;;;0.97;84.88
23363;BME280;11853;48.080;11.960;2022-12-17T15:25:12;95593.19;;;1.07;81.49
23363;BME280;11853;48.080;11.960;2022-12-17T15:27:39;95593.50;;;1.01;82.92
23363;BME280;11853;48.080;11.960;2022-12-17T15:30:05;95591.91;;;0.80;83.49
23363;BME280;11853;48.080;11.960;2022-12-17T15:32:31;95588.53;;;0.60;84.69
23363;BME280;11853;48.080;11.960;2022-12-17T15:34:57;95589.75;;;0.53;85.72